Time;durP1;ratioP1;P1;durP2;ratioP2;P2;SDS_P1;SDS_P2;PMS_P1;PMS_P2;Temp;Humidity;BMP_temperature;BMP_pressure;BME280_temperature;BME280_humidity;BME280_pressure;Samples;Min_cycle;Max_cycle;Signal;HPM_P1;HPM_P2
2022/06/12 00:01:11;;;;;;;3.78;0.47;;;14.00;98.80;;;;;;5024459;28;20474;-69
2022/06/12 00:03:39;;;;;;;4.75;0.50;;;14.10;98.90;;;;;;5035479;28;20381;-69
2022/06/12 00:06:07;;;;;;;3.00;0.60;;;14.10;99.00;;;;;;5023470;28;20103;-69
2022/06/12 00:08:38;;;;;;;2.53;0.50;;;14.30;98.50;;;;;;5027325;28;20369;-68
2022/06/12 00:11:08;;;;;;;3.60;0.50;;;14.20;98.90;;;;;;5030926;28;20029;-69
2022/06/12 00:13:41;;;;;;;5.60;0.43;;;14.40;99.10;;;;;;5030533;28;20021;-69
2022/06/12 00:16:10;;;;;;;3.22;0.45;;;14.50;98.80;;;;;;5028256;28;20034;-69
2022/06/12 00:18:38;;;;;;;3.58;0.52;;;14.50;98.60;;;;;;5027823;28;20021;-69
2022/06/12 00:21:12;;;;;;;1.98;0.30;;;14.50;98.20;;;;;;5045647;28;20025;-69
2022/06/12 00:23:45;;;;;;;0.85;0.35;;;14.60;98.10;;;;;;5040025;28;20017;-69
2022/06/12 00:26:15;;;;;;;4.25;0.30;;;14.60;98.00;;;;;;5037065;28;20037;-69
2022/06/12 00:28:42;;;;;;;1.67;0.20;;;14.60;98.20;;;;;;5032718;28;20045;-69
2022/06/12 00:31:09;;;;;;;2.25;0.30;;;14.70;98.30;;;;;;5023149;28;20494;-69
2022/06/12 00:33:37;;;;;;;3.13;0.40;;;15.00;98.50;;;;;;5030356;28;20029;-69
2022/06/12 00:36:05;;;;;;;2.80;0.40;;;14.90;97.70;;;;;;5023636;28;20048;-68
2022/06/12 00:38:32;;;;;;;1.00;0.20;;;14.90;98.10;;;;;;5027285;28;20539;-69
2022/06/12 00:41:00;;;;;;;1.75;0.30;;;15.00;97.80;;;;;;5022679;28;20021;-69
2022/06/12 00:43:31;;;;;;;1.73;0.20;;;15.00;97.70;;;;;;5031425;28;20033;-69
2022/06/12 00:46:00;;;;;;;3.47;0.25;;;14.90;97.60;;;;;;5023736;28;20109;-69
2022/06/12 00:48:32;;;;;;;3.30;0.20;;;15.10;97.70;;;;;;5021385;28;20398;-69
2022/06/12 00:51:06;;;;;;;4.22;0.68;;;15.10;97.30;;;;;;5024100;28;21230;-69
2022/06/12 00:53:39;;;;;;;3.87;0.70;;;15.10;97.50;;;;;;5035045;28;20037;-70
2022/06/12 00:56:16;;;;;;;1.73;0.60;;;15.20;97.40;;;;;;5032185;28;20108;-69
2022/06/12 00:58:51;;;;;;;3.92;0.40;;;15.40;98.00;;;;;;5031556;28;20040;-70
2022/06/12 01:01:37;;;;;;;5.18;0.47;;;15.60;97.90;;;;;;5035793;28;20045;-70
2022/06/12 01:06:53;;;;;;;3.53;0.88;;;15.70;97.60;;;;;;5031610;28;20036;-70
2022/06/12 01:09:28;;;;;;;3.47;0.40;;;15.70;97.60;;;;;;5029628;28;20102;-69
2022/06/12 01:11:58;;;;;;;3.88;0.35;;;15.60;97.00;;;;;;5035111;28;20498;-69
2022/06/12 01:14:32;;;;;;;5.72;0.38;;;15.80;97.50;;;;;;5023617;28;20502;-69
2022/06/12 01:17:01;;;;;;;1.55;0.75;;;15.80;97.70;;;;;;5044576;28;20531;-70
2022/06/12 01:19:37;;;;;;;1.90;0.55;;;15.90;97.60;;;;;;5041027;28;20018;-70
2022/06/12 01:22:19;;;;;;;1.80;0.57;;;15.90;97.00;;;;;;5015324;28;20053;-68
2022/06/12 01:25:08;;;;;;;3.15;0.30;;;15.80;97.10;;;;;;5041326;28;20056;-69
2022/06/12 01:27:47;;;;;;;2.17;0.57;;;15.80;97.70;;;;;;5016771;28;20581;-70
2022/06/12 01:30:36;;;;;;;1.90;0.30;;;15.90;97.20;;;;;;5015337;28;20026;-68
2022/06/12 01:33:27;;;;;;;1.13;0.30;;;15.80;97.00;;;;;;5034992;28;20034;-69
2022/06/12 01:36:06;;;;;;;2.20;0.30;;;15.90;97.00;;;;;;5029982;28;22080;-68
2022/06/12 01:38:52;;;;;;;1.33;0.40;;;15.90;97.10;;;;;;5042087;28;20076;-69
2022/06/12 01:41:28;;;;;;;1.67;0.30;;;16.20;97.00;;;;;;5028314;28;20115;-67
2022/06/12 01:44:04;;;;;;;4.68;0.50;;;16.10;96.70;;;;;;5027580;28;20017;-67
2022/06/12 01:46:41;;;;;;;1.58;0.40;;;16.10;96.50;;;;;;5015077;28;20049;-68
2022/06/12 01:49:18;;;;;;;1.83;0.30;;;16.20;96.70;;;;;;5014940;28;20378;-68
2022/06/12 01:52:10;;;;;;;3.55;0.40;;;16.20;96.40;;;;;;5015250;28;20041;-68
2022/06/12 01:54:43;;;;;;;1.00;0.43;;;16.30;96.20;;;;;;5018719;28;20061;-68
2022/06/12 01:57:19;;;;;;;2.33;0.22;;;16.30;96.40;;;;;;5045635;28;20012;-69
2022/06/12 02:00:09;;;;;;;2.65;0.60;;;16.30;95.90;;;;;;5040062;28;20030;-68
2022/06/12 02:03:12;;;;;;;2.67;0.30;;;16.40;96.30;;;;;;5034125;28;20029;-68
2022/06/12 02:05:48;;;;;;;2.40;0.40;;;16.70;96.20;;;;;;5014062;28;20034;-68
2022/06/12 02:08:24;;;;;;;2.03;0.43;;;16.60;95.50;;;;;;5019608;28;20060;-67
2022/06/12 02:13:58;;;;;;;1.42;0.40;;;16.80;95.90;;;;;;5019585;28;20071;-67
2022/06/12 02:16:32;;;;;;;2.00;0.40;;;16.80;95.70;;;;;;5022047;28;20026;-66
2022/06/12 02:19:04;;;;;;;1.95;0.65;;;16.90;95.90;;;;;;5029139;28;20022;-68
2022/06/12 02:21:43;;;;;;;0.75;0.20;;;17.40;95.10;;;;;;5044840;28;20036;-69
2022/06/12 02:24:13;;;;;;;1.73;0.20;;;17.60;94.80;;;;;;5037189;28;20033;-69
2022/06/12 02:26:46;;;;;;;2.78;0.30;;;17.50;94.60;;;;;;5020947;28;20029;-69
2022/06/12 02:29:21;;;;;;;3.20;0.40;;;17.40;94.30;;;;;;5036480;28;20022;-69
2022/06/12 02:31:53;;;;;;;2.05;0.30;;;17.30;94.40;;;;;;5045261;28;20041;-69
2022/06/12 02:34:29;;;;;;;2.17;0.43;;;17.40;94.10;;;;;;5036852;28;20109;-69
2022/06/12 02:37:11;;;;;;;0.88;0.15;;;17.40;94.20;;;;;;5018039;28;20061;-68
2022/06/12 02:39:43;;;;;;;4.28;0.30;;;17.40;94.40;;;;;;5041646;28;20040;-68
2022/06/12 02:42:19;;;;;;;1.42;0.40;;;17.20;94.20;;;;;;5020359;28;20033;-68
2022/06/12 02:45:05;;;;;;;1.73;0.20;;;17.20;94.30;;;;;;5013269;28;20026;-68
2022/06/12 02:47:37;;;;;;;0.75;0.30;;;17.50;94.20;;;;;;5029398;28;20083;-68
2022/06/12 02:50:06;;;;;;;2.63;0.30;;;17.50;94.50;;;;;;5030334;28;20029;-67
2022/06/12 02:52:37;;;;;;;1.60;0.20;;;17.60;94.20;;;;;;5030443;28;20033;-68
2022/06/12 02:55:28;;;;;;;0.93;0.10;;;17.50;94.40;;;;;;5012982;28;20057;-67
2022/06/12 02:58:43;;;;;;;1.80;0.20;;;17.60;94.50;;;;;;5019683;28;20731;-67
2022/06/12 03:01:18;;;;;;;1.67;0.38;;;17.10;93.80;;;;;;5033869;28;20485;-67
2022/06/12 03:04:00;;;;;;;1.40;0.35;;;16.90;94.10;;;;;;5031611;28;20037;-67
2022/06/12 03:06:29;;;;;;;1.83;0.30;;;17.10;94.20;;;;;;5025575;28;20513;-67
2022/06/12 03:09:02;;;;;;;0.68;0.32;;;17.00;94.30;;;;;;5020527;28;20018;-67
2022/06/12 03:11:40;;;;;;;3.53;0.10;;;17.20;94.40;;;;;;5031877;28;20053;-67
2022/06/12 03:14:11;;;;;;;3.85;0.20;;;17.30;94.30;;;;;;5052935;28;20033;-67
2022/06/12 03:16:41;;;;;;;2.63;0.25;;;17.20;94.30;;;;;;5049664;28;20028;-67
2022/06/12 03:19:17;;;;;;;0.77;0.20;;;17.00;94.00;;;;;;5038244;28;20097;-67
2022/06/12 03:21:53;;;;;;;1.00;0.20;;;17.10;94.30;;;;;;5047668;28;20462;-67
2022/06/12 03:24:36;;;;;;;2.72;0.50;;;17.00;94.30;;;;;;5039360;28;20422;-67
2022/06/12 03:27:23;;;;;;;2.20;0.28;;;17.00;94.30;;;;;;5013221;28;20025;-67
2022/06/12 03:29:57;;;;;;;1.50;0.17;;;17.00;94.30;;;;;;5028259;28;20025;-67
2022/06/12 03:32:44;;;;;;;2.07;0.30;;;16.80;94.40;;;;;;5022662;28;20033;-67
2022/06/12 03:35:43;;;;;;;2.45;0.40;;;17.00;94.50;;;;;;5013745;28;20580;-67
2022/06/12 03:38:22;;;;;;;1.45;0.20;;;17.10;94.50;;;;;;5014999;28;20109;-67
2022/06/12 03:41:14;;;;;;;0.75;0.20;;;16.90;94.50;;;;;;5018149;28;20034;-67
2022/06/12 03:43:41;;;;;;;3.22;0.30;;;16.80;94.40;;;;;;5028575;28;20079;-67
2022/06/12 03:46:20;;;;;;;2.13;0.52;;;16.70;94.50;;;;;;5019700;28;20037;-67
2022/06/12 03:48:55;;;;;;;1.15;0.20;;;16.70;94.60;;;;;;5028815;28;20034;-67
2022/06/12 03:51:44;;;;;;;0.63;0.17;;;16.60;94.70;;;;;;5020671;28;20061;-67
2022/06/12 03:54:21;;;;;;;1.13;0.40;;;16.70;94.80;;;;;;5027487;28;20060;-67
2022/06/12 03:59:48;;;;;;;1.83;0.20;;;16.50;94.40;;;;;;5036044;28;20033;-67
2022/06/12 04:02:20;;;;;;;2.53;0.20;;;16.70;95.00;;;;;;5030291;28;20032;-67
2022/06/12 04:04:49;;;;;;;1.50;0.10;;;16.60;95.10;;;;;;5048398;28;20115;-68
2022/06/12 04:07:18;;;;;;;1.08;0.20;;;16.40;95.10;;;;;;5025648;28;20029;-69
2022/06/12 04:09:49;;;;;;;2.85;0.65;;;16.40;95.30;;;;;;5032670;28;20037;-68
2022/06/12 04:12:29;;;;;;;1.13;0.17;;;16.40;95.40;;;;;;5024343;28;20014;-68
2022/06/12 04:15:13;;;;;;;1.55;0.40;;;16.40;95.40;;;;;;5019801;28;20113;-68
2022/06/12 04:17:41;;;;;;;2.07;0.60;;;16.50;95.40;;;;;;5028092;28;20375;-67
2022/06/12 04:20:20;;;;;;;2.10;0.43;;;16.40;95.50;;;;;;5027401;28;20278;-68
2022/06/12 04:23:05;;;;;;;3.58;2.22;;;16.30;95.50;;;;;;5032671;28;20039;-68
2022/06/12 04:25:47;;;;;;;1.80;0.30;;;16.30;95.50;;;;;;5017649;28;20026;-68
2022/06/12 04:28:37;;;;;;;1.35;0.40;;;16.10;95.50;;;;;;5022533;28;20038;-67
2022/06/12 04:31:10;;;;;;;1.17;0.40;;;16.20;95.70;;;;;;5025072;28;20029;-68
2022/06/12 04:34:14;;;;;;;1.60;0.15;;;16.10;95.60;;;;;;5031756;28;20363;-68
2022/06/12 04:36:45;;;;;;;2.22;0.17;;;16.10;95.80;;;;;;5026827;28;20038;-68
2022/06/12 04:39:14;;;;;;;1.35;0.20;;;16.20;95.90;;;;;;5026462;28;20430;-68
2022/06/12 04:41:43;;;;;;;1.00;0.20;;;16.20;96.00;;;;;;5028646;28;20029;-68
2022/06/12 04:44:13;;;;;;;1.40;0.30;;;16.10;95.90;;;;;;5024060;28;20060;-67
2022/06/12 04:46:44;;;;;;;3.03;0.35;;;16.00;96.00;;;;;;5024660;28;20367;-67
2022/06/12 04:49:16;;;;;;;0.77;0.30;;;16.10;96.20;;;;;;5035701;28;20021;-67
2022/06/12 04:51:44;;;;;;;0.30;0.20;;;16.20;95.90;;;;;;5031568;28;20014;-68
2022/06/12 04:54:11;;;;;;;1.33;0.10;;;16.10;96.00;;;;;;5036713;28;20137;-67
2022/06/12 04:56:41;;;;;;;0.68;0.20;;;16.00;95.70;;;;;;5032907;28;20120;-67
2022/06/12 04:59:11;;;;;;;3.72;0.32;;;16.00;95.80;;;;;;5043798;28;20554;-67
2022/06/12 05:01:39;;;;;;;0.95;0.10;;;16.00;96.00;;;;;;5038157;28;20374;-67
2022/06/12 05:04:07;;;;;;;1.55;0.22;;;15.90;96.00;;;;;;5024461;28;20094;-67
2022/06/12 05:06:36;;;;;;;2.20;0.10;;;16.00;96.30;;;;;;5025652;28;20025;-67
2022/06/12 05:09:04;;;;;;;1.75;0.40;;;16.10;96.40;;;;;;5043257;28;20478;-67
2022/06/12 05:11:32;;;;;;;0.30;0.20;;;15.90;96.00;;;;;;5020175;28;20021;-67
2022/06/12 05:14:00;;;;;;;0.70;0.10;;;15.90;96.40;;;;;;5029495;28;20048;-67
2022/06/12 05:16:55;;;;;;;0.90;0.10;;;15.90;96.40;;;;;;5018190;28;20037;-68
2022/06/12 05:19:27;;;;;;;1.55;0.30;;;15.80;96.30;;;;;;5032205;28;20040;-68
2022/06/12 05:21:55;;;;;;;0.50;0.10;;;15.80;96.40;;;;;;5030675;28;20508;-68
2022/06/12 05:24:22;;;;;;;1.27;0.10;;;15.80;96.30;;;;;;5021455;28;20030;-68
2022/06/12 05:26:51;;;;;;;1.30;0.20;;;15.80;96.80;;;;;;5034216;28;20022;-68
2022/06/12 05:29:31;;;;;;;0.10;0.10;;;15.70;96.50;;;;;;5021029;28;20018;-68
2022/06/12 05:31:58;;;;;;;0.95;0.35;;;15.70;96.70;;;;;;5033670;28;20029;-68
2022/06/12 05:34:27;;;;;;;0.57;0.10;;;15.60;96.80;;;;;;5024371;28;20130;-68
2022/06/12 05:36:55;;;;;;;1.67;0.68;;;15.60;96.90;;;;;;5035330;28;20109;-68
2022/06/12 05:39:23;;;;;;;1.58;0.15;;;15.70;96.90;;;;;;5030405;28;20036;-67
2022/06/12 05:41:52;;;;;;;0.75;0.13;;;15.60;96.70;;;;;;5025856;28;20029;-68
2022/06/12 05:44:20;;;;;;;0.17;0.10;;;15.60;96.80;;;;;;5027606;28;20030;-68
2022/06/12 05:46:48;;;;;;;2.17;0.47;;;15.60;96.70;;;;;;5019754;28;20030;-68
2022/06/12 05:49:16;;;;;;;0.30;0.10;;;15.60;96.90;;;;;;5025641;28;20116;-68
2022/06/12 05:51:44;;;;;;;0.68;0.10;;;15.50;97.20;;;;;;5036410;28;20072;-68
2022/06/12 05:54:12;;;;;;;0.60;0.08;;;15.50;97.20;;;;;;5019064;28;20049;-68
2022/06/12 05:56:39;;;;;;;1.02;0.10;;;15.40;97.30;;;;;;5025386;28;20022;-68
2022/06/12 05:59:07;;;;;;;2.33;0.28;;;15.40;97.30;;;;;;5034787;28;20124;-68
2022/06/12 06:01:34;;;;;;;0.50;0.20;;;15.40;97.60;;;;;;5036809;28;20025;-68
2022/06/12 06:04:02;;;;;;;1.13;0.20;;;15.40;97.80;;;;;;5030132;28;20088;-68
2022/06/12 06:06:33;;;;;;;1.77;0.10;;;15.30;97.50;;;;;;5025075;28;20037;-68
2022/06/12 06:09:01;;;;;;;0.98;0.47;;;15.30;97.30;;;;;;5039423;28;20052;-68
2022/06/12 06:11:28;;;;;;;1.27;0.10;;;15.20;97.60;;;;;;5030684;28;20134;-68
2022/06/12 06:13:56;;;;;;;1.33;0.30;;;15.20;97.80;;;;;;5028675;28;20096;-67
2022/06/12 06:16:23;;;;;;;1.08;0.15;;;15.10;98.00;;;;;;5031223;28;20025;-67
2022/06/12 06:18:51;;;;;;;1.40;0.32;;;15.00;98.00;;;;;;5023187;28;20028;-68
2022/06/12 06:21:18;;;;;;;0.75;0.10;;;14.90;98.10;;;;;;5035995;28;20021;-68
2022/06/12 06:23:46;;;;;;;1.85;0.10;;;14.90;98.00;;;;;;5025340;28;20032;-67
2022/06/12 06:26:13;;;;;;;1.70;0.20;;;14.80;98.20;;;;;;5034434;28;20460;-67
2022/06/12 06:28:40;;;;;;;0.38;0.10;;;14.80;98.10;;;;;;5026451;28;20058;-67
2022/06/12 06:31:09;;;;;;;2.28;0.85;;;14.70;98.10;;;;;;5017889;28;20022;-68
2022/06/12 06:33:37;;;;;;;0.50;0.28;;;14.60;98.20;;;;;;5033390;28;20030;-67
2022/06/12 06:36:05;;;;;;;0.70;0.28;;;14.60;98.30;;;;;;5029355;28;20057;-67
2022/06/12 06:38:32;;;;;;;2.55;0.30;;;14.50;98.30;;;;;;5045711;28;20035;-68
2022/06/12 06:41:00;;;;;;;2.28;0.22;;;14.40;98.40;;;;;;5022796;28;20072;-68
2022/06/12 06:43:27;;;;;;;1.23;0.30;;;14.40;98.50;;;;;;5020429;28;20084;-68
2022/06/12 06:48:40;;;;;;;0.40;0.10;;;14.30;98.70;;;;;;5053076;28;20055;-68
2022/06/12 06:51:07;;;;;;;1.75;0.20;;;14.20;98.90;;;;;;5030334;28;20022;-68
2022/06/12 06:53:34;;;;;;;1.27;0.38;;;14.10;99.00;;;;;;5052181;28;20045;-68
2022/06/12 06:56:02;;;;;;;0.60;0.10;;;14.20;98.90;;;;;;5024524;28;20034;-68
2022/06/12 06:58:32;;;;;;;1.55;0.13;;;14.20;98.90;;;;;;5028967;28;20018;-68
2022/06/12 07:01:00;;;;;;;0.70;0.30;;;14.10;99.00;;;;;;5013566;28;20121;-68
2022/06/12 07:03:28;;;;;;;1.23;0.10;;;14.00;99.20;;;;;;5026808;28;20534;-68
2022/06/12 07:05:56;;;;;;;4.03;0.40;;;14.00;99.00;;;;;;5028020;28;20045;-68
2022/06/12 07:08:26;;;;;;;1.05;0.30;;;14.00;99.00;;;;;;5030529;28;20026;-68
2022/06/12 07:10:55;;;;;;;0.10;0.05;;;14.00;99.00;;;;;;5026171;28;20363;-68
2022/06/12 07:13:23;;;;;;;0.20;0.10;;;13.90;99.10;;;;;;5019468;28;20109;-68
2022/06/12 07:15:51;;;;;;;0.20;0.10;;;13.90;99.30;;;;;;5029137;28;20035;-68
2022/06/12 07:18:19;;;;;;;2.80;0.50;;;13.80;99.40;;;;;;5027892;28;20021;-68
2022/06/12 07:20:56;;;;;;;0.70;0.20;;;13.80;99.40;;;;;;5035619;28;20519;-68
2022/06/12 07:23:24;;;;;;;0.63;0.20;;;13.80;99.30;;;;;;5036957;28;20096;-68
2022/06/12 07:25:55;;;;;;;2.63;0.20;;;13.80;99.20;;;;;;5029483;28;20029;-68
2022/06/12 07:28:24;;;;;;;2.85;0.30;;;13.80;99.30;;;;;;5028557;28;20029;-68
2022/06/12 07:30:52;;;;;;;1.73;1.08;;;13.70;99.50;;;;;;5027508;28;20018;-68
2022/06/12 07:33:20;;;;;;;0.90;0.20;;;13.60;99.70;;;;;;5027795;28;20545;-67
2022/06/12 07:35:49;;;;;;;2.03;0.30;;;13.70;99.80;;;;;;5033138;28;20493;-68
2022/06/12 07:38:20;;;;;;;7.10;4.88;;;13.70;99.90;;;;;;5048404;28;20079;-68
2022/06/12 07:40:54;;;;;;;4.35;3.58;;;13.50;99.90;;;;;;5018393;28;20025;-68
2022/06/12 07:43:22;;;;;;;8.40;4.60;;;13.50;99.90;;;;;;5029184;28;20029;-68
2022/06/12 07:45:51;;;;;;;6.05;5.43;;;13.50;99.90;;;;;;5018782;28;20037;-69
2022/06/12 07:48:20;;;;;;;3.83;1.95;;;13.40;99.90;;;;;;5034703;28;20428;-68
2022/06/12 07:50:50;;;;;;;1.00;0.40;;;13.50;99.90;;;;;;5032435;28;20034;-68
2022/06/12 07:53:19;;;;;;;1.20;0.35;;;13.50;99.90;;;;;;5046198;28;20039;-68
2022/06/12 07:55:48;;;;;;;0.70;0.20;;;13.40;99.90;;;;;;5039275;28;20109;-68
2022/06/12 07:58:16;;;;;;;0.35;0.20;;;13.40;99.90;;;;;;5032785;28;20032;-68
2022/06/12 08:00:44;;;;;;;0.73;0.30;;;13.30;99.90;;;;;;5026632;28;20029;-68
2022/06/12 08:03:12;;;;;;;1.65;0.82;;;13.30;99.90;;;;;;5032025;28;20156;-68
2022/06/12 08:05:39;;;;;;;3.50;0.60;;;13.20;99.90;;;;;;5042872;28;20033;-69
2022/06/12 08:08:06;;;;;;;2.83;0.70;;;13.30;99.90;;;;;;5036537;28;20541;-68
2022/06/12 08:10:34;;;;;;;1.55;0.25;;;13.30;99.90;;;;;;5027675;28;20525;-68
2022/06/12 08:13:07;;;;;;;0.93;0.30;;;13.30;99.90;;;;;;5019001;28;20022;-68
2022/06/12 08:15:35;;;;;;;0.63;0.20;;;13.20;99.90;;;;;;5024020;28;20060;-68
2022/06/12 08:18:04;;;;;;;0.60;0.20;;;13.20;99.90;;;;;;5027241;28;20104;-68
2022/06/12 08:20:33;;;;;;;1.23;0.73;;;13.20;99.90;;;;;;5026624;28;20025;-68
2022/06/12 08:23:26;;;;;;;1.77;0.60;;;13.20;99.90;;;;;;5024270;28;20017;-68
2022/06/12 08:26:00;;;;;;;2.72;0.30;;;13.10;99.90;;;;;;5012221;28;20113;-68
2022/06/12 08:28:30;;;;;;;0.98;0.38;;;13.10;99.90;;;;;;5036184;28;20025;-68
2022/06/12 08:30:58;;;;;;;1.27;0.90;;;13.10;99.90;;;;;;5037363;28;20109;-68
2022/06/12 08:33:25;;;;;;;1.98;1.10;;;13.10;99.90;;;;;;5030097;28;20374;-69
2022/06/12 08:35:53;;;;;;;1.20;0.35;;;13.10;99.90;;;;;;5031425;28;20083;-68
2022/06/12 08:38:21;;;;;;;1.83;0.57;;;13.10;99.90;;;;;;5015589;28;20033;-68
2022/06/12 08:40:54;;;;;;;2.08;1.30;;;13.10;99.90;;;;;;5019627;28;20101;-68
2022/06/12 08:43:28;;;;;;;4.18;2.67;;;13.10;99.90;;;;;;5034816;28;20024;-68
2022/06/12 08:45:57;;;;;;;;;;;13.00;99.90;;;;;;5021139;28;20112;-68
2022/06/12 08:48:39;;;;;;;0.65;0.20;;;13.00;99.90;;;;;;5040616;28;19906;-69
2022/06/12 08:51:34;;;;;;;1.13;0.60;;;13.00;99.90;;;;;;5025087;28;20100;-69
2022/06/12 08:54:25;;;;;;;1.13;0.22;;;13.00;99.90;;;;;;5053793;28;20036;-69
2022/06/12 08:57:11;;;;;;;0.85;0.20;;;12.90;99.90;;;;;;5027817;28;20028;-68
2022/06/12 09:00:01;;;;;;;0.32;0.22;;;12.90;99.90;;;;;;5018556;28;20033;-69
2022/06/12 09:02:35;;;;;;;1.13;0.30;;;12.90;99.90;;;;;;5030163;28;20490;-68
2022/06/12 09:05:05;;;;;;;0.20;0.10;;;12.80;99.90;;;;;;5045843;28;20029;-68
2022/06/12 09:07:38;;;;;;;0.93;0.20;;;12.80;99.90;;;;;;5019929;28;20034;-69
2022/06/12 09:10:19;;;;;;;0.77;0.30;;;12.80;99.90;;;;;;5029325;28;20040;-69
2022/06/12 09:13:04;;;;;;;1.40;0.30;;;12.80;99.90;;;;;;5036278;28;20033;-68
2022/06/12 09:15:39;;;;;;;1.55;0.50;;;12.80;99.90;;;;;;5044980;28;20126;-68
2022/06/12 09:18:34;;;;;;;0.60;0.45;;;12.80;99.90;;;;;;5034361;28;20025;-68
2022/06/12 09:21:16;;;;;;;1.42;0.40;;;12.70;99.90;;;;;;5029515;28;20121;-68
2022/06/12 09:23:58;;;;;;;1.95;1.13;;;12.80;99.90;;;;;;5050400;28;20374;-69
2022/06/12 09:26:46;;;;;;;3.10;0.80;;;12.70;99.90;;;;;;5032670;28;20466;-68
2022/06/12 09:29:29;;;;;;;1.10;0.50;;;12.60;99.90;;;;;;5038720;28;20026;-68
2022/06/12 09:32:21;;;;;;;1.95;0.57;;;12.60;99.90;;;;;;5022327;28;20424;-68
2022/06/12 09:34:57;;;;;;;1.65;0.40;;;12.50;99.90;;;;;;5019076;28;20028;-69
2022/06/12 09:41:28;;;;;;;1.23;0.30;;;12.40;99.90;;;;;;5035608;28;20042;-68
2022/06/12 09:44:32;;;;;;;6.03;1.40;;;12.40;99.90;;;;;;5044959;28;20025;-67
2022/06/12 09:47:26;;;;;;;7.60;2.95;;;12.40;99.90;;;;;;5034100;28;21165;-68
2022/06/12 09:50:06;;;;;;;7.75;6.90;;;12.20;99.90;;;;;;5042482;28;20478;-68
2022/06/12 09:53:05;;;;;;;2.80;0.77;;;12.20;99.90;;;;;;5030122;28;20152;-68
2022/06/12 09:55:42;;;;;;;1.42;0.40;;;12.30;99.90;;;;;;5036406;28;20038;-68
2022/06/12 09:58:16;;;;;;;2.95;0.75;;;12.10;99.90;;;;;;5040390;28;20025;-68
2022/06/12 10:00:58;;;;;;;2.45;0.98;;;12.10;99.90;;;;;;5027426;28;20116;-68
2022/06/12 10:03:44;;;;;;;1.65;0.50;;;12.00;99.90;;;;;;5047517;28;20025;-68
2022/06/12 10:06:22;;;;;;;1.63;0.40;;;12.00;99.90;;;;;;5028630;28;20095;-68
2022/06/12 10:09:19;;;;;;;1.00;0.50;;;12.00;99.90;;;;;;5032376;28;20097;-68
2022/06/12 10:12:05;;;;;;;2.33;1.05;;;11.90;99.90;;;;;;5040934;28;20027;-68
2022/06/12 10:14:41;;;;;;;1.75;0.80;;;11.90;99.90;;;;;;5032437;28;20026;-68
2022/06/12 10:17:13;;;;;;;2.95;1.42;;;11.80;99.90;;;;;;5026272;28;20044;-69
2022/06/12 10:19:52;;;;;;;4.22;1.27;;;11.70;99.90;;;;;;5015135;28;20030;-68
2022/06/12 10:22:34;;;;;;;4.05;1.55;;;11.70;99.90;;;;;;5027509;28;20022;-68
2022/06/12 10:25:04;;;;;;;2.25;1.52;;;11.60;99.90;;;;;;5017619;28;20034;-68
2022/06/12 10:27:45;;;;;;;2.40;1.70;;;11.60;99.90;;;;;;5025909;28;20080;-68
2022/06/12 10:30:40;;;;;;;4.25;1.75;;;11.50;99.90;;;;;;5037196;28;20075;-68
2022/06/12 10:33:24;;;;;;;4.05;2.05;;;11.50;99.90;;;;;;5051929;28;20033;-68
2022/06/12 10:35:58;;;;;;;3.23;1.13;;;11.40;99.90;;;;;;5017194;28;20507;-68
2022/06/12 10:38:29;;;;;;;6.40;1.80;;;11.40;99.90;;;;;;5049942;28;20488;-68
2022/06/12 10:41:03;;;;;;;4.07;1.92;;;11.30;99.90;;;;;;5043942;28;20474;-68
2022/06/12 10:43:33;;;;;;;5.13;2.13;;;11.40;99.90;;;;;;5049348;28;20508;-69
2022/06/12 10:46:15;;;;;;;4.75;1.75;;;11.40;99.90;;;;;;5048718;28;20079;-68
2022/06/12 10:48:54;;;;;;;4.38;1.77;;;11.30;99.90;;;;;;5023063;28;20033;-68
2022/06/12 10:51:25;;;;;;;2.63;1.33;;;11.40;99.90;;;;;;5026396;28;20059;-68
2022/06/12 10:54:02;;;;;;;2.08;1.10;;;11.30;99.90;;;;;;5052666;28;20045;-68
2022/06/12 10:56:46;;;;;;;2.25;1.13;;;11.30;99.90;;;;;;5052944;28;20032;-68
2022/06/12 10:59:23;;;;;;;2.13;1.02;;;11.20;99.90;;;;;;5035694;28;20480;-68
2022/06/12 11:02:31;;;;;;;2.92;1.27;;;11.30;99.90;;;;;;5021891;28;20021;-69
2022/06/12 11:05:13;;;;;;;3.78;1.63;;;11.20;99.90;;;;;;5035210;28;20037;-68
2022/06/12 11:07:49;;;;;;;2.53;1.45;;;11.20;99.90;;;;;;5039924;28;20509;-69
2022/06/12 11:10:43;;;;;;;3.38;1.40;;;11.20;99.90;;;;;;5024564;28;20079;-69
2022/06/12 11:13:44;;;;;;;3.03;1.38;;;11.20;99.90;;;;;;5021570;28;20032;-68
2022/06/12 11:16:33;;;;;;;3.67;1.13;;;11.30;99.90;;;;;;5028029;28;20505;-68
2022/06/12 11:19:21;;;;;;;3.22;1.60;;;11.20;99.90;;;;;;5039896;28;20432;-68
2022/06/12 11:22:10;;;;;;;3.28;1.40;;;11.20;99.90;;;;;;5024021;28;20021;-68
2022/06/12 11:25:20;;;;;;;4.72;1.80;;;11.30;99.90;;;;;;5030543;28;20412;-69
2022/06/12 11:28:01;;;;;;;4.53;1.35;;;11.30;99.90;;;;;;5019784;28;20509;-68
2022/06/12 11:31:02;;;;;;;2.90;1.73;;;11.20;99.90;;;;;;5024398;28;20025;-68
2022/06/12 11:33:43;;;;;;;5.75;2.00;;;11.30;99.90;;;;;;5019243;28;20502;-68
2022/06/12 11:36:22;;;;;;;2.72;1.25;;;11.30;99.90;;;;;;5023894;28;20104;-68
2022/06/12 11:38:56;;;;;;;3.05;1.45;;;11.20;99.90;;;;;;5028385;28;20032;-68
2022/06/12 11:41:35;;;;;;;2.38;1.25;;;11.30;99.90;;;;;;5027879;28;20033;-69
2022/06/12 11:44:34;;;;;;;4.15;1.83;;;11.20;99.90;;;;;;5037710;28;20078;-68
2022/06/12 11:47:23;;;;;;;3.55;1.83;;;11.20;99.90;;;;;;5029097;28;20494;-68
2022/06/12 11:50:17;;;;;;;4.43;1.70;;;11.00;99.90;;;;;;5023829;28;20604;-69
2022/06/12 11:53:10;;;;;;;3.50;1.77;;;11.00;99.90;;;;;;5025044;28;20551;-69
2022/06/12 11:56:07;;;;;;;3.15;1.58;;;11.00;99.90;;;;;;5017801;28;20033;-68
2022/06/12 11:59:27;;;;;;;5.95;2.03;;;11.00;99.90;;;;;;5015957;28;20054;-68
2022/06/12 12:02:02;;;;;;;3.38;1.48;;;11.00;99.90;;;;;;5039538;28;20037;-68
2022/06/12 12:04:59;;;;;;;2.40;1.25;;;11.00;99.90;;;;;;5041977;28;20056;-68
2022/06/12 12:07:27;;;;;;;2.40;1.42;;;10.90;99.90;;;;;;5032932;28;20055;-68
2022/06/12 12:10:29;;;;;;;2.58;1.20;;;10.90;99.90;;;;;;5025219;28;20071;-69
2022/06/12 12:13:11;;;;;;;6.05;1.42;;;10.90;99.90;;;;;;5030605;28;20405;-68
2022/06/12 12:15:49;;;;;;;3.38;1.58;;;10.90;99.90;;;;;;5027840;28;20390;-68
2022/06/12 12:18:31;;;;;;;2.15;1.40;;;11.00;99.90;;;;;;5026435;28;20029;-68
2022/06/12 12:21:02;;;;;;;3.33;1.50;;;10.90;99.90;;;;;;5026710;28;20390;-68
2022/06/12 12:23:35;;;;;;;3.80;1.40;;;10.70;99.90;;;;;;5024525;28;20064;-68
2022/06/12 12:26:28;;;;;;;2.63;1.27;;;10.70;99.90;;;;;;5024046;28;20124;-68
2022/06/12 12:29:01;;;;;;;2.58;1.23;;;10.60;99.90;;;;;;5020960;28;20029;-68
2022/06/12 12:31:30;;;;;;;2.90;1.90;;;10.70;99.90;;;;;;5023545;28;20029;-68
2022/06/12 12:34:03;;;;;;;3.92;1.60;;;10.70;99.90;;;;;;5027822;28;20055;-69
2022/06/12 12:42:40;;;;;;;2.45;1.50;;;10.60;99.90;;;;;;5024312;28;20629;-69
2022/06/12 12:45:31;;;;;;;3.38;1.50;;;10.60;99.90;;;;;;5039641;28;20064;-69
2022/06/12 12:48:04;;;;;;;4.28;1.63;;;10.70;99.90;;;;;;5025873;28;20026;-69
2022/06/12 12:50:55;;;;;;;2.95;1.73;;;10.60;99.90;;;;;;5036474;28;20061;-69
2022/06/12 12:53:31;;;;;;;2.15;1.20;;;10.50;99.90;;;;;;5035037;28;20041;-69
2022/06/12 12:56:15;;;;;;;4.28;1.73;;;10.60;99.90;;;;;;5026479;28;20025;-69
2022/06/12 12:59:11;;;;;;;3.35;1.63;;;10.70;99.90;;;;;;5027626;28;20032;-69
2022/06/12 13:01:47;;;;;;;4.05;1.77;;;10.70;99.90;;;;;;5031615;28;20037;-70
2022/06/12 13:04:30;;;;;;;3.25;1.77;;;10.70;99.90;;;;;;5027680;28;20053;-69
2022/06/12 13:07:34;;;;;;;3.60;1.67;;;10.70;99.90;;;;;;5024865;28;20068;-69
2022/06/12 13:10:43;;;;;;;3.10;1.05;;;10.70;99.90;;;;;;5027368;28;20034;-69
2022/06/12 13:13:22;;;;;;;3.47;1.45;;;10.80;99.90;;;;;;5023740;28;20026;-70
2022/06/12 13:16:26;;;;;;;3.67;1.58;;;10.80;99.90;;;;;;5028261;28;20156;-69
2022/06/12 13:19:12;;;;;;;2.17;1.08;;;10.80;99.90;;;;;;5030846;28;20084;-70
2022/06/12 13:22:14;;;;;;;2.30;0.75;;;10.60;99.90;;;;;;5031547;28;20120;-70
2022/06/12 13:25:22;;;;;;;1.90;0.77;;;10.60;99.90;;;;;;5023534;28;20026;-69
2022/06/12 13:27:58;;;;;;;2.20;0.90;;;10.60;99.90;;;;;;5025232;28;20025;-69
2022/06/12 13:30:33;;;;;;;1.60;0.90;;;10.70;99.90;;;;;;5033703;28;20466;-69
2022/06/12 13:33:16;;;;;;;2.28;0.93;;;10.80;99.90;;;;;;5025801;28;20021;-69
2022/06/12 13:35:47;;;;;;;2.15;0.95;;;10.80;99.90;;;;;;5024451;28;20030;-69
2022/06/12 13:38:20;;;;;;;4.22;1.33;;;10.80;99.90;;;;;;5018310;28;20080;-69
2022/06/12 13:41:02;;;;;;;1.77;0.65;;;10.80;99.90;;;;;;5021699;28;20032;-69
2022/06/12 13:43:43;;;;;;;2.63;0.98;;;10.70;99.90;;;;;;5029522;28;20018;-69
2022/06/12 13:46:33;;;;;;;3.67;1.00;;;10.60;99.90;;;;;;5034092;28;20399;-69
2022/06/12 13:49:01;;;;;;;1.98;0.60;;;10.50;99.90;;;;;;5021849;28;20033;-69
2022/06/12 13:51:37;;;;;;;1.30;0.60;;;10.50;99.90;;;;;;5015557;28;20052;-69
2022/06/12 13:54:13;;;;;;;1.95;0.82;;;10.60;99.90;;;;;;5019451;28;20045;-70
2022/06/12 13:56:50;;;;;;;1.45;0.88;;;10.60;99.90;;;;;;5018911;28;20022;-69
2022/06/12 13:59:27;;;;;;;2.08;0.80;;;10.70;99.90;;;;;;5018062;28;20111;-69